KFMN/FMN METAR and TAF weather

Enter ICAO airport designator
Station Type Date Time Source
KFMN METAR 2020/01/22 18:00 UTC NOAA

KFMN 221800Z 27013KT 10SM FEW007 03/01 A3008 RMK AO2 T00330011


Station Type Date Time Source
KFMN Decoded METAR 2020/01/22 18:00 UTC NOAA

FARMINGTON FOUR CORNERS, NM, United States (KFMN) 36-45N 108-14W 1685M
Jan 22, 2020 - 01:00 PM EST / 2020.01.22 1800 UTC
Wind: from the W (270 degrees) at 15 MPH (13 KT):0
Visibility: 10 mile(s):0
Sky conditions: mostly clear
Temperature: 37.9 F (3.3 C)
Dew Point: 34.0 F (1.1 C)
Relative Humidity: 85%
Pressure (altimeter): 30.08 in. Hg (1018 hPa)
ob: KFMN 221800Z 27013KT 10SM FEW007 03/01 A3008 RMK AO2 T00330011
cycle: 18

Station Type Date Time Source
KFMN TAF 2020/01/22 18:22 UTC NOAA

TAF KFMN 221720Z 2218/2318 28010G17KT P6SM SCT200
FM222000 29013G19KT P6SM SCT200
FM230200 28006KT P6SM SKC
FM231000 30005KT P6SM VCFG SCT010

Example: see airport list